sensor_id;sensor_type;location;lat;lon;timestamp;P1;durP1;ratioP1;P2;durP2;ratioP2
5774;SDS011;2913;51.120;6.772;2022-10-24T00:02:05;26.30;;;4.40;;
5774;SDS011;2913;51.120;6.772;2022-10-24T00:04:35;20.70;;;5.30;;
5774;SDS011;2913;51.120;6.772;2022-10-24T00:07:02;17.25;;;4.65;;
5774;SDS011;2913;51.120;6.772;2022-10-24T00:09:29;26.25;;;4.68;;
5774;SDS011;2913;51.120;6.772;2022-10-24T00:11:54;12.05;;;4.30;;
5774;SDS011;2913;51.120;6.772;2022-10-24T00:14:20;21.60;;;5.32;;
5774;SDS011;2913;51.120;6.772;2022-10-24T00:16:48;13.38;;;4.30;;
5774;SDS011;2913;51.120;6.772;2022-10-24T00:19:16;22.10;;;5.75;;
5774;SDS011;2913;51.120;6.772;2022-10-24T00:21:41;20.45;;;4.63;;
5774;SDS011;2913;51.120;6.772;2022-10-24T00:24:07;32.13;;;5.28;;
5774;SDS011;2913;51.120;6.772;2022-10-24T00:26:36;15.50;;;4.32;;
5774;SDS011;2913;51.120;6.772;2022-10-24T00:29:03;22.73;;;4.35;;
5774;SDS011;2913;51.120;6.772;2022-10-24T00:31:31;26.95;;;4.13;;
5774;SDS011;2913;51.120;6.772;2022-10-24T00:33:59;17.52;;;3.63;;
5774;SDS011;2913;51.120;6.772;2022-10-24T00:36:25;13.00;;;4.35;;
5774;SDS011;2913;51.120;6.772;2022-10-24T00:38:51;33.47;;;5.07;;
5774;SDS011;2913;51.120;6.772;2022-10-24T00:41:26;20.25;;;5.63;;
5774;SDS011;2913;51.120;6.772;2022-10-24T00:44:11;20.48;;;4.32;;
5774;SDS011;2913;51.120;6.772;2022-10-24T00:46:41;23.50;;;4.67;;
5774;SDS011;2913;51.120;6.772;2022-10-24T00:49:14;15.35;;;3.80;;
5774;SDS011;2913;51.120;6.772;2022-10-24T00:51:45;16.80;;;4.28;;
5774;SDS011;2913;51.120;6.772;2022-10-24T00:54:15;21.80;;;3.85;;
5774;SDS011;2913;51.120;6.772;2022-10-24T00:59:22;16.52;;;4.15;;
5774;SDS011;2913;51.120;6.772;2022-10-24T01:01:50;17.73;;;4.07;;
5774;SDS011;2913;51.120;6.772;2022-10-24T01:04:16;21.48;;;3.80;;
5774;SDS011;2913;51.120;6.772;2022-10-24T01:17:30;16.83;;;4.25;;
5774;SDS011;2913;51.120;6.772;2022-10-24T01:25:42;17.25;;;4.25;;
5774;SDS011;2913;51.120;6.772;2022-10-24T01:28:35;19.10;;;4.53;;
5774;SDS011;2913;51.120;6.772;2022-10-24T01:31:15;26.17;;;4.25;;
5774;SDS011;2913;51.120;6.772;2022-10-24T01:33:50;18.98;;;4.18;;
5774;SDS011;2913;51.120;6.772;2022-10-24T01:36:25;27.08;;;5.32;;
5774;SDS011;2913;51.120;6.772;2022-10-24T01:38:59;17.73;;;3.92;;
5774;SDS011;2913;51.120;6.772;2022-10-24T01:41:29;16.30;;;4.47;;
5774;SDS011;2913;51.120;6.772;2022-10-24T01:44:31;22.75;;;4.68;;
5774;SDS011;2913;51.120;6.772;2022-10-24T01:47:02;15.55;;;4.90;;
5774;SDS011;2913;51.120;6.772;2022-10-24T01:49:35;20.00;;;4.90;;
5774;SDS011;2913;51.120;6.772;2022-10-24T01:52:05;24.73;;;4.00;;
5774;SDS011;2913;51.120;6.772;2022-10-24T01:54:37;16.38;;;3.90;;
5774;SDS011;2913;51.120;6.772;2022-10-24T01:57:09;18.17;;;4.35;;
5774;SDS011;2913;51.120;6.772;2022-10-24T01:59:40;15.02;;;4.65;;
5774;SDS011;2913;51.120;6.772;2022-10-24T02:04:51;16.50;;;4.20;;
5774;SDS011;2913;51.120;6.772;2022-10-24T02:07:22;21.98;;;3.72;;
5774;SDS011;2913;51.120;6.772;2022-10-24T02:09:51;19.85;;;4.40;;
5774;SDS011;2913;51.120;6.772;2022-10-24T02:12:21;16.00;;;3.63;;
5774;SDS011;2913;51.120;6.772;2022-10-24T02:14:57;19.52;;;3.78;;
5774;SDS011;2913;51.120;6.772;2022-10-24T02:17:33;34.50;;;4.05;;
5774;SDS011;2913;51.120;6.772;2022-10-24T02:20:01;16.60;;;3.88;;
5774;SDS011;2913;51.120;6.772;2022-10-24T02:25:06;16.17;;;3.80;;
5774;SDS011;2913;51.120;6.772;2022-10-24T02:27:40;15.82;;;4.00;;
5774;SDS011;2913;51.120;6.772;2022-10-24T02:30:13;25.95;;;4.63;;
5774;SDS011;2913;51.120;6.772;2022-10-24T02:32:51;14.77;;;3.93;;
5774;SDS011;2913;51.120;6.772;2022-10-24T02:35:20;23.80;;;3.85;;
5774;SDS011;2913;51.120;6.772;2022-10-24T02:37:51;19.33;;;4.90;;
5774;SDS011;2913;51.120;6.772;2022-10-24T02:40:21;13.57;;;4.40;;
5774;SDS011;2913;51.120;6.772;2022-10-24T02:42:48;25.10;;;3.88;;
5774;SDS011;2913;51.120;6.772;2022-10-24T02:45:17;25.23;;;5.43;;
5774;SDS011;2913;51.120;6.772;2022-10-24T02:47:44;20.15;;;4.30;;
5774;SDS011;2913;51.120;6.772;2022-10-24T02:50:12;21.67;;;5.32;;
5774;SDS011;2913;51.120;6.772;2022-10-24T02:52:41;18.33;;;4.57;;
5774;SDS011;2913;51.120;6.772;2022-10-24T02:55:10;18.80;;;3.95;;
5774;SDS011;2913;51.120;6.772;2022-10-24T02:57:36;15.77;;;3.70;;
5774;SDS011;2913;51.120;6.772;2022-10-24T03:00:02;20.38;;;3.80;;
5774;SDS011;2913;51.120;6.772;2022-10-24T03:02:29;18.77;;;4.68;;
5774;SDS011;2913;51.120;6.772;2022-10-24T03:04:54;19.30;;;3.42;;
5774;SDS011;2913;51.120;6.772;2022-10-24T03:07:20;19.20;;;4.00;;
5774;SDS011;2913;51.120;6.772;2022-10-24T03:09:45;17.38;;;3.97;;
5774;SDS011;2913;51.120;6.772;2022-10-24T03:12:14;19.85;;;3.65;;
5774;SDS011;2913;51.120;6.772;2022-10-24T03:14:44;20.42;;;4.18;;
5774;SDS011;2913;51.120;6.772;2022-10-24T03:17:12;22.33;;;3.78;;
5774;SDS011;2913;51.120;6.772;2022-10-24T03:19:40;17.73;;;4.93;;
5774;SDS011;2913;51.120;6.772;2022-10-24T03:22:06;18.58;;;4.05;;
5774;SDS011;2913;51.120;6.772;2022-10-24T03:24:34;17.88;;;4.32;;
5774;SDS011;2913;51.120;6.772;2022-10-24T03:26:59;13.20;;;3.60;;
5774;SDS011;2913;51.120;6.772;2022-10-24T03:29:27;14.30;;;3.50;;
5774;SDS011;2913;51.120;6.772;2022-10-24T03:31:55;13.70;;;3.47;;
5774;SDS011;2913;51.120;6.772;2022-10-24T03:34:21;22.15;;;3.60;;
5774;SDS011;2913;51.120;6.772;2022-10-24T03:36:49;17.90;;;3.42;;
5774;SDS011;2913;51.120;6.772;2022-10-24T03:39:17;20.67;;;3.13;;
5774;SDS011;2913;51.120;6.772;2022-10-24T03:41:42;27.27;;;4.55;;
5774;SDS011;2913;51.120;6.772;2022-10-24T03:44:10;10.95;;;3.63;;
5774;SDS011;2913;51.120;6.772;2022-10-24T03:46:41;16.77;;;3.20;;
5774;SDS011;2913;51.120;6.772;2022-10-24T03:49:08;10.32;;;3.10;;
5774;SDS011;2913;51.120;6.772;2022-10-24T03:51:34;16.33;;;3.90;;
5774;SDS011;2913;51.120;6.772;2022-10-24T03:53:59;24.40;;;4.70;;
5774;SDS011;2913;51.120;6.772;2022-10-24T03:56:27;19.70;;;3.67;;
5774;SDS011;2913;51.120;6.772;2022-10-24T03:58:53;19.77;;;4.55;;
5774;SDS011;2913;51.120;6.772;2022-10-24T04:01:18;20.80;;;4.55;;
5774;SDS011;2913;51.120;6.772;2022-10-24T04:03:44;15.50;;;3.70;;
5774;SDS011;2913;51.120;6.772;2022-10-24T04:06:10;15.73;;;3.50;;
5774;SDS011;2913;51.120;6.772;2022-10-24T04:08:37;17.77;;;4.30;;
5774;SDS011;2913;51.120;6.772;2022-10-24T04:11:03;17.50;;;3.80;;
5774;SDS011;2913;51.120;6.772;2022-10-24T04:13:32;19.33;;;3.63;;
5774;SDS011;2913;51.120;6.772;2022-10-24T04:15:58;20.73;;;3.17;;
5774;SDS011;2913;51.120;6.772;2022-10-24T04:18:24;16.90;;;3.53;;
5774;SDS011;2913;51.120;6.772;2022-10-24T04:20:52;17.20;;;3.38;;
5774;SDS011;2913;51.120;6.772;2022-10-24T04:23:18;13.43;;;3.38;;
5774;SDS011;2913;51.120;6.772;2022-10-24T04:25:43;16.33;;;3.72;;
5774;SDS011;2913;51.120;6.772;2022-10-24T04:28:10;15.52;;;4.22;;
5774;SDS011;2913;51.120;6.772;2022-10-24T04:30:38;11.57;;;3.22;;
5774;SDS011;2913;51.120;6.772;2022-10-24T04:33:03;10.63;;;3.38;;
5774;SDS011;2913;51.120;6.772;2022-10-24T04:35:29;28.30;;;3.45;;
5774;SDS011;2913;51.120;6.772;2022-10-24T04:37:55;18.10;;;4.32;;
5774;SDS011;2913;51.120;6.772;2022-10-24T04:40:20;18.85;;;3.25;;
5774;SDS011;2913;51.120;6.772;2022-10-24T04:42:46;16.42;;;3.90;;
5774;SDS011;2913;51.120;6.772;2022-10-24T04:45:11;14.55;;;3.20;;
5774;SDS011;2913;51.120;6.772;2022-10-24T04:47:37;13.85;;;2.85;;
5774;SDS011;2913;51.120;6.772;2022-10-24T04:50:05;10.43;;;2.85;;
5774;SDS011;2913;51.120;6.772;2022-10-24T04:52:31;15.90;;;3.17;;
5774;SDS011;2913;51.120;6.772;2022-10-24T04:54:59;18.63;;;3.38;;
5774;SDS011;2913;51.120;6.772;2022-10-24T04:57:25;10.93;;;3.13;;
5774;SDS011;2913;51.120;6.772;2022-10-24T04:59:50;18.73;;;3.47;;
5774;SDS011;2913;51.120;6.772;2022-10-24T05:02:16;15.15;;;2.83;;
5774;SDS011;2913;51.120;6.772;2022-10-24T05:04:41;11.05;;;2.50;;
5774;SDS011;2913;51.120;6.772;2022-10-24T05:07:09;17.15;;;2.72;;
5774;SDS011;2913;51.120;6.772;2022-10-24T05:09:40;17.02;;;3.10;;
5774;SDS011;2913;51.120;6.772;2022-10-24T05:12:05;11.07;;;3.00;;
5774;SDS011;2913;51.120;6.772;2022-10-24T05:14:31;15.38;;;3.13;;
5774;SDS011;2913;51.120;6.772;2022-10-24T05:16:57;16.35;;;3.28;;
5774;SDS011;2913;51.120;6.772;2022-10-24T05:19:22;11.02;;;2.83;;
5774;SDS011;2913;51.120;6.772;2022-10-24T05:21:48;10.77;;;2.83;;
5774;SDS011;2913;51.120;6.772;2022-10-24T05:24:13;14.25;;;4.20;;
5774;SDS011;2913;51.120;6.772;2022-10-24T05:26:39;18.45;;;3.85;;
5774;SDS011;2913;51.120;6.772;2022-10-24T05:29:07;14.38;;;2.85;;
5774;SDS011;2913;51.120;6.772;2022-10-24T05:31:35;12.90;;;3.03;;
5774;SDS011;2913;51.120;6.772;2022-10-24T05:34:02;11.00;;;2.60;;
5774;SDS011;2913;51.120;6.772;2022-10-24T05:36:28;6.13;;;2.50;;
5774;SDS011;2913;51.120;6.772;2022-10-24T05:38:54;10.32;;;2.60;;
5774;SDS011;2913;51.120;6.772;2022-10-24T05:41:20;13.50;;;2.75;;
5774;SDS011;2913;51.120;6.772;2022-10-24T05:43:48;19.20;;;3.00;;
5774;SDS011;2913;51.120;6.772;2022-10-24T05:46:14;10.85;;;2.17;;
5774;SDS011;2913;51.120;6.772;2022-10-24T05:48:41;7.40;;;2.08;;
5774;SDS011;2913;51.120;6.772;2022-10-24T05:51:07;13.52;;;2.15;;
5774;SDS011;2913;51.120;6.772;2022-10-24T05:53:35;10.23;;;2.10;;
5774;SDS011;2913;51.120;6.772;2022-10-24T05:56:01;13.50;;;2.05;;
5774;SDS011;2913;51.120;6.772;2022-10-24T05:58:30;12.45;;;2.42;;
5774;SDS011;2913;51.120;6.772;2022-10-24T06:00:55;13.07;;;2.42;;
5774;SDS011;2913;51.120;6.772;2022-10-24T06:03:23;6.70;;;1.80;;
5774;SDS011;2913;51.120;6.772;2022-10-24T06:05:49;8.10;;;2.13;;
5774;SDS011;2913;51.120;6.772;2022-10-24T06:08:15;4.93;;;1.85;;
5774;SDS011;2913;51.120;6.772;2022-10-24T06:10:44;17.83;;;2.55;;
5774;SDS011;2913;51.120;6.772;2022-10-24T06:13:14;10.00;;;1.42;;
5774;SDS011;2913;51.120;6.772;2022-10-24T06:15:42;19.05;;;2.00;;
5774;SDS011;2913;51.120;6.772;2022-10-24T06:18:09;14.45;;;1.95;;
5774;SDS011;2913;51.120;6.772;2022-10-24T06:20:35;9.50;;;2.00;;
5774;SDS011;2913;51.120;6.772;2022-10-24T06:23:01;11.07;;;1.65;;
5774;SDS011;2913;51.120;6.772;2022-10-24T06:25:29;10.18;;;1.90;;
5774;SDS011;2913;51.120;6.772;2022-10-24T06:27:55;11.43;;;2.35;;
5774;SDS011;2913;51.120;6.772;2022-10-24T06:30:23;9.15;;;1.67;;
5774;SDS011;2913;51.120;6.772;2022-10-24T06:32:48;14.80;;;3.08;;
5774;SDS011;2913;51.120;6.772;2022-10-24T06:35:16;6.15;;;1.80;;
5774;SDS011;2913;51.120;6.772;2022-10-24T06:37:43;14.18;;;2.15;;
5774;SDS011;2913;51.120;6.772;2022-10-24T06:40:09;9.20;;;2.00;;
5774;SDS011;2913;51.120;6.772;2022-10-24T06:42:37;7.05;;;1.90;;
5774;SDS011;2913;51.120;6.772;2022-10-24T06:45:05;7.72;;;1.83;;
5774;SDS011;2913;51.120;6.772;2022-10-24T06:47:31;14.65;;;1.98;;
5774;SDS011;2913;51.120;6.772;2022-10-24T06:49:57;15.18;;;2.17;;
5774;SDS011;2913;51.120;6.772;2022-10-24T06:52:24;12.95;;;1.70;;
5774;SDS011;2913;51.120;6.772;2022-10-24T06:54:52;7.80;;;1.80;;
5774;SDS011;2913;51.120;6.772;2022-10-24T06:57:18;11.85;;;1.67;;
5774;SDS011;2913;51.120;6.772;2022-10-24T06:59:44;12.00;;;1.85;;
5774;SDS011;2913;51.120;6.772;2022-10-24T07:02:14;15.43;;;2.05;;
5774;SDS011;2913;51.120;6.772;2022-10-24T07:04:40;9.80;;;2.00;;
5774;SDS011;2913;51.120;6.772;2022-10-24T07:07:06;10.98;;;1.70;;
5774;SDS011;2913;51.120;6.772;2022-10-24T07:09:37;12.55;;;2.30;;
5774;SDS011;2913;51.120;6.772;2022-10-24T07:12:02;5.55;;;1.60;;
5774;SDS011;2913;51.120;6.772;2022-10-24T07:14:28;5.28;;;1.83;;
5774;SDS011;2913;51.120;6.772;2022-10-24T07:16:54;10.32;;;1.92;;
5774;SDS011;2913;51.120;6.772;2022-10-24T07:19:19;11.35;;;3.05;;
5774;SDS011;2913;51.120;6.772;2022-10-24T07:21:45;13.75;;;2.22;;
5774;SDS011;2913;51.120;6.772;2022-10-24T07:24:11;10.10;;;3.20;;
5774;SDS011;2913;51.120;6.772;2022-10-24T07:26:37;11.40;;;1.83;;
5774;SDS011;2913;51.120;6.772;2022-10-24T07:29:03;13.48;;;2.78;;
5774;SDS011;2913;51.120;6.772;2022-10-24T07:31:30;10.27;;;2.25;;
5774;SDS011;2913;51.120;6.772;2022-10-24T07:34:03;10.10;;;1.60;;
5774;SDS011;2913;51.120;6.772;2022-10-24T07:36:30;8.30;;;1.48;;
5774;SDS011;2913;51.120;6.772;2022-10-24T07:38:56;14.43;;;2.13;;
5774;SDS011;2913;51.120;6.772;2022-10-24T07:41:27;15.05;;;1.55;;
5774;SDS011;2913;51.120;6.772;2022-10-24T07:43:55;8.48;;;1.40;;
5774;SDS011;2913;51.120;6.772;2022-10-24T07:46:22;7.90;;;1.45;;
5774;SDS011;2913;51.120;6.772;2022-10-24T07:48:48;12.00;;;2.25;;
5774;SDS011;2913;51.120;6.772;2022-10-24T07:51:15;11.30;;;2.25;;
5774;SDS011;2913;51.120;6.772;2022-10-24T07:53:41;9.23;;;1.90;;
5774;SDS011;2913;51.120;6.772;2022-10-24T07:56:08;19.02;;;1.73;;
5774;SDS011;2913;51.120;6.772;2022-10-24T07:58:37;12.05;;;1.52;;
5774;SDS011;2913;51.120;6.772;2022-10-24T08:01:05;7.00;;;1.45;;
5774;SDS011;2913;51.120;6.772;2022-10-24T08:03:38;15.20;;;1.95;;
5774;SDS011;2913;51.120;6.772;2022-10-24T08:06:07;17.88;;;2.28;;
5774;SDS011;2913;51.120;6.772;2022-10-24T08:08:35;7.20;;;1.33;;
5774;SDS011;2913;51.120;6.772;2022-10-24T08:11:05;13.68;;;2.55;;
5774;SDS011;2913;51.120;6.772;2022-10-24T08:13:38;9.85;;;1.60;;
5774;SDS011;2913;51.120;6.772;2022-10-24T08:16:05;11.82;;;1.95;;
5774;SDS011;2913;51.120;6.772;2022-10-24T08:18:37;8.52;;;0.95;;
5774;SDS011;2913;51.120;6.772;2022-10-24T08:21:04;16.00;;;1.52;;
5774;SDS011;2913;51.120;6.772;2022-10-24T08:23:32;19.13;;;1.55;;
5774;SDS011;2913;51.120;6.772;2022-10-24T08:25:58;7.85;;;1.13;;
5774;SDS011;2913;51.120;6.772;2022-10-24T08:28:26;11.88;;;1.38;;
5774;SDS011;2913;51.120;6.772;2022-10-24T08:30:58;15.23;;;1.70;;
5774;SDS011;2913;51.120;6.772;2022-10-24T08:33:27;12.95;;;1.50;;
5774;SDS011;2913;51.120;6.772;2022-10-24T08:35:59;18.38;;;1.88;;
5774;SDS011;2913;51.120;6.772;2022-10-24T08:38:28;6.75;;;1.10;;
5774;SDS011;2913;51.120;6.772;2022-10-24T08:40:54;16.23;;;1.42;;
5774;SDS011;2913;51.120;6.772;2022-10-24T08:43:23;7.68;;;1.25;;
5774;SDS011;2913;51.120;6.772;2022-10-24T08:46:13;13.82;;;1.52;;
5774;SDS011;2913;51.120;6.772;2022-10-24T08:49:25;18.05;;;1.60;;
5774;SDS011;2913;51.120;6.772;2022-10-24T08:52:00;7.63;;;1.42;;
5774;SDS011;2913;51.120;6.772;2022-10-24T08:54:33;9.23;;;0.98;;
5774;SDS011;2913;51.120;6.772;2022-10-24T08:57:03;7.18;;;1.20;;
5774;SDS011;2913;51.120;6.772;2022-10-24T08:59:34;6.05;;;1.33;;
5774;SDS011;2913;51.120;6.772;2022-10-24T09:02:03;9.82;;;1.10;;
5774;SDS011;2913;51.120;6.772;2022-10-24T09:04:39;12.43;;;1.85;;
5774;SDS011;2913;51.120;6.772;2022-10-24T09:07:14;10.20;;;1.88;;
5774;SDS011;2913;51.120;6.772;2022-10-24T09:09:44;8.02;;;1.20;;
5774;SDS011;2913;51.120;6.772;2022-10-24T09:12:16;7.35;;;1.20;;
5774;SDS011;2913;51.120;6.772;2022-10-24T09:14:44;8.73;;;1.43;;
5774;SDS011;2913;51.120;6.772;2022-10-24T09:19:55;21.98;;;2.58;;
5774;SDS011;2913;51.120;6.772;2022-10-24T09:22:24;12.07;;;1.30;;
5774;SDS011;2913;51.120;6.772;2022-10-24T09:24:56;14.63;;;1.65;;
5774;SDS011;2913;51.120;6.772;2022-10-24T09:27:29;16.05;;;1.55;;
5774;SDS011;2913;51.120;6.772;2022-10-24T09:29:58;9.02;;;1.92;;
5774;SDS011;2913;51.120;6.772;2022-10-24T09:32:25;16.17;;;1.90;;
5774;SDS011;2913;51.120;6.772;2022-10-24T09:35:00;22.67;;;1.70;;
5774;SDS011;2913;51.120;6.772;2022-10-24T09:40:14;16.88;;;1.40;;
5774;SDS011;2913;51.120;6.772;2022-10-24T09:42:47;10.18;;;1.52;;
5774;SDS011;2913;51.120;6.772;2022-10-24T09:45:17;5.18;;;1.52;;
5774;SDS011;2913;51.120;6.772;2022-10-24T09:47:59;12.75;;;2.33;;
5774;SDS011;2913;51.120;6.772;2022-10-24T09:50:28;18.70;;;2.20;;
5774;SDS011;2913;51.120;6.772;2022-10-24T09:52:59;15.45;;;1.98;;
5774;SDS011;2913;51.120;6.772;2022-10-24T09:55:28;12.73;;;1.63;;
5774;SDS011;2913;51.120;6.772;2022-10-24T09:57:55;12.95;;;2.75;;
5774;SDS011;2913;51.120;6.772;2022-10-24T10:02:58;17.33;;;1.90;;
5774;SDS011;2913;51.120;6.772;2022-10-24T10:05:47;14.82;;;1.63;;
5774;SDS011;2913;51.120;6.772;2022-10-24T10:08:16;9.93;;;1.92;;
5774;SDS011;2913;51.120;6.772;2022-10-24T10:10:54;11.60;;;1.73;;
5774;SDS011;2913;51.120;6.772;2022-10-24T10:13:27;13.32;;;1.85;;
5774;SDS011;2913;51.120;6.772;2022-10-24T10:23:38;17.00;;;2.05;;
5774;SDS011;2913;51.120;6.772;2022-10-24T10:26:27;14.15;;;1.50;;
5774;SDS011;2913;51.120;6.772;2022-10-24T10:29:01;10.43;;;2.00;;
5774;SDS011;2913;51.120;6.772;2022-10-24T10:31:41;10.93;;;2.15;;
5774;SDS011;2913;51.120;6.772;2022-10-24T10:40:28;7.70;;;1.50;;
5774;SDS011;2913;51.120;6.772;2022-10-24T10:56:55;13.93;;;1.70;;
5774;SDS011;2913;51.120;6.772;2022-10-24T10:59:40;11.57;;;1.70;;
5774;SDS011;2913;51.120;6.772;2022-10-24T11:08:27;17.52;;;1.80;;
5774;SDS011;2913;51.120;6.772;2022-10-24T11:11:11;14.93;;;1.83;;
5774;SDS011;2913;51.120;6.772;2022-10-24T11:13:46;13.88;;;1.85;;
5774;SDS011;2913;51.120;6.772;2022-10-24T11:16:32;16.45;;;2.03;;
5774;SDS011;2913;51.120;6.772;2022-10-24T11:19:04;11.27;;;1.42;;
5774;SDS011;2913;51.120;6.772;2022-10-24T11:21:39;15.63;;;2.95;;
5774;SDS011;2913;51.120;6.772;2022-10-24T11:24:10;18.83;;;1.80;;
5774;SDS011;2913;51.120;6.772;2022-10-24T11:26:40;15.93;;;2.03;;
5774;SDS011;2913;51.120;6.772;2022-10-24T11:29:18;9.57;;;1.30;;
5774;SDS011;2913;51.120;6.772;2022-10-24T11:34:50;11.07;;;1.60;;
5774;SDS011;2913;51.120;6.772;2022-10-24T11:37:25;13.82;;;1.77;;
5774;SDS011;2913;51.120;6.772;2022-10-24T11:40:31;14.52;;;2.13;;
5774;SDS011;2913;51.120;6.772;2022-10-24T11:45:40;11.63;;;1.90;;
5774;SDS011;2913;51.120;6.772;2022-10-24T11:48:14;16.08;;;1.65;;
5774;SDS011;2913;51.120;6.772;2022-10-24T11:50:51;17.45;;;2.50;;
5774;SDS011;2913;51.120;6.772;2022-10-24T11:56:16;8.35;;;1.80;;
5774;SDS011;2913;51.120;6.772;2022-10-24T11:59:06;14.20;;;1.95;;
5774;SDS011;2913;51.120;6.772;2022-10-24T12:10:13;14.40;;;1.65;;
5774;SDS011;2913;51.120;6.772;2022-10-24T12:15:47;11.48;;;1.75;;
5774;SDS011;2913;51.120;6.772;2022-10-24T12:18:47;13.23;;;2.10;;
5774;SDS011;2913;51.120;6.772;2022-10-24T12:21:18;23.15;;;2.53;;
5774;SDS011;2913;51.120;6.772;2022-10-24T12:23:56;10.83;;;1.93;;
5774;SDS011;2913;51.120;6.772;2022-10-24T12:26:29;15.18;;;2.00;;
5774;SDS011;2913;51.120;6.772;2022-10-24T12:28:59;9.60;;;1.60;;
5774;SDS011;2913;51.120;6.772;2022-10-24T12:31:28;15.32;;;1.88;;
5774;SDS011;2913;51.120;6.772;2022-10-24T12:39:55;12.90;;;2.47;;
5774;SDS011;2913;51.120;6.772;2022-10-24T12:44:48;15.35;;;2.15;;
5774;SDS011;2913;51.120;6.772;2022-10-24T12:47:41;22.45;;;2.28;;
5774;SDS011;2913;51.120;6.772;2022-10-24T13:01:00;20.63;;;2.60;;
5774;SDS011;2913;51.120;6.772;2022-10-24T13:06:55;14.18;;;1.70;;
5774;SDS011;2913;51.120;6.772;2022-10-24T13:20:24;10.98;;;1.85;;
5774;SDS011;2913;51.120;6.772;2022-10-24T13:22:59;9.63;;;1.45;;
5774;SDS011;2913;51.120;6.772;2022-10-24T13:25:46;10.13;;;1.33;;
5774;SDS011;2913;51.120;6.772;2022-10-24T13:28:28;10.35;;;1.58;;
5774;SDS011;2913;51.120;6.772;2022-10-24T13:36:09;10.40;;;1.52;;
5774;SDS011;2913;51.120;6.772;2022-10-24T13:41:16;11.02;;;1.60;;
5774;SDS011;2913;51.120;6.772;2022-10-24T13:43:51;13.73;;;1.50;;
5774;SDS011;2913;51.120;6.772;2022-10-24T13:49:18;8.52;;;1.27;;
5774;SDS011;2913;51.120;6.772;2022-10-24T13:51:58;8.35;;;2.30;;
5774;SDS011;2913;51.120;6.772;2022-10-24T13:54:31;7.20;;;1.23;;
5774;SDS011;2913;51.120;6.772;2022-10-24T13:57:19;9.07;;;1.10;;
5774;SDS011;2913;51.120;6.772;2022-10-24T13:59:54;10.82;;;2.47;;
5774;SDS011;2913;51.120;6.772;2022-10-24T14:02:22;10.32;;;1.27;;
5774;SDS011;2913;51.120;6.772;2022-10-24T14:04:50;15.52;;;1.75;;
5774;SDS011;2913;51.120;6.772;2022-10-24T14:07:22;8.65;;;1.17;;
5774;SDS011;2913;51.120;6.772;2022-10-24T14:09:54;11.43;;;1.85;;
5774;SDS011;2913;51.120;6.772;2022-10-24T14:12:27;6.55;;;1.30;;
5774;SDS011;2913;51.120;6.772;2022-10-24T14:14:55;16.73;;;2.15;;
5774;SDS011;2913;51.120;6.772;2022-10-24T14:17:30;8.73;;;1.55;;
5774;SDS011;2913;51.120;6.772;2022-10-24T14:22:35;9.48;;;1.95;;
5774;SDS011;2913;51.120;6.772;2022-10-24T14:25:04;10.32;;;1.63;;
5774;SDS011;2913;51.120;6.772;2022-10-24T14:27:31;10.40;;;1.65;;
5774;SDS011;2913;51.120;6.772;2022-10-24T14:29:59;9.02;;;2.10;;
5774;SDS011;2913;51.120;6.772;2022-10-24T14:32:29;8.52;;;1.40;;
5774;SDS011;2913;51.120;6.772;2022-10-24T14:34:56;10.38;;;1.65;;
5774;SDS011;2913;51.120;6.772;2022-10-24T14:37:25;11.98;;;1.67;;
5774;SDS011;2913;51.120;6.772;2022-10-24T14:40:01;8.45;;;1.90;;
5774;SDS011;2913;51.120;6.772;2022-10-24T14:42:28;10.40;;;1.35;;
5774;SDS011;2913;51.120;6.772;2022-10-24T14:44:55;8.77;;;1.70;;
5774;SDS011;2913;51.120;6.772;2022-10-24T14:47:26;14.82;;;1.60;;
5774;SDS011;2913;51.120;6.772;2022-10-24T14:49:52;10.70;;;1.58;;
5774;SDS011;2913;51.120;6.772;2022-10-24T14:54:52;23.00;;;1.75;;
5774;SDS011;2913;51.120;6.772;2022-10-24T14:57:23;7.25;;;1.38;;
5774;SDS011;2913;51.120;6.772;2022-10-24T14:59:50;6.35;;;1.20;;
5774;SDS011;2913;51.120;6.772;2022-10-24T15:04:45;9.57;;;1.67;;
5774;SDS011;2913;51.120;6.772;2022-10-24T15:09:50;14.40;;;1.50;;
5774;SDS011;2913;51.120;6.772;2022-10-24T15:12:22;11.10;;;2.08;;
5774;SDS011;2913;51.120;6.772;2022-10-24T15:15:16;15.68;;;2.53;;
5774;SDS011;2913;51.120;6.772;2022-10-24T15:20:11;13.15;;;1.60;;
5774;SDS011;2913;51.120;6.772;2022-10-24T15:22:44;11.60;;;2.20;;
5774;SDS011;2913;51.120;6.772;2022-10-24T15:25:19;14.55;;;2.10;;
5774;SDS011;2913;51.120;6.772;2022-10-24T15:27:49;15.15;;;1.77;;
5774;SDS011;2913;51.120;6.772;2022-10-24T15:30:24;11.43;;;1.92;;
5774;SDS011;2913;51.120;6.772;2022-10-24T15:32:55;17.10;;;2.33;;
5774;SDS011;2913;51.120;6.772;2022-10-24T15:35:27;8.65;;;1.65;;
5774;SDS011;2913;51.120;6.772;2022-10-24T15:37:54;14.38;;;1.77;;
5774;SDS011;2913;51.120;6.772;2022-10-24T15:40:30;16.13;;;1.98;;
5774;SDS011;2913;51.120;6.772;2022-10-24T15:42:58;7.67;;;1.53;;
5774;SDS011;2913;51.120;6.772;2022-10-24T15:45:24;12.18;;;2.10;;
5774;SDS011;2913;51.120;6.772;2022-10-24T15:47:53;15.60;;;1.35;;
5774;SDS011;2913;51.120;6.772;2022-10-24T15:50:20;30.90;;;2.75;;
5774;SDS011;2913;51.120;6.772;2022-10-24T15:52:51;13.68;;;1.73;;
5774;SDS011;2913;51.120;6.772;2022-10-24T15:55:21;10.63;;;2.03;;
5774;SDS011;2913;51.120;6.772;2022-10-24T15:57:48;16.52;;;1.80;;
5774;SDS011;2913;51.120;6.772;2022-10-24T16:00:17;13.95;;;2.10;;
5774;SDS011;2913;51.120;6.772;2022-10-24T16:02:46;13.27;;;1.73;;
5774;SDS011;2913;51.120;6.772;2022-10-24T16:05:19;31.67;;;2.33;;
5774;SDS011;2913;51.120;6.772;2022-10-24T16:07:47;22.35;;;2.42;;
5774;SDS011;2913;51.120;6.772;2022-10-24T16:10:16;13.68;;;2.08;;
5774;SDS011;2913;51.120;6.772;2022-10-24T16:12:43;15.27;;;2.00;;
5774;SDS011;2913;51.120;6.772;2022-10-24T16:15:31;20.73;;;2.83;;
5774;SDS011;2913;51.120;6.772;2022-10-24T16:18:02;18.52;;;2.38;;
5774;SDS011;2913;51.120;6.772;2022-10-24T16:20:30;16.83;;;2.42;;
5774;SDS011;2913;51.120;6.772;2022-10-24T16:22:56;15.30;;;3.05;;
5774;SDS011;2913;51.120;6.772;2022-10-24T16:25:24;14.00;;;2.30;;
5774;SDS011;2913;51.120;6.772;2022-10-24T16:27:52;16.35;;;2.67;;
5774;SDS011;2913;51.120;6.772;2022-10-24T16:30:19;12.60;;;2.55;;
5774;SDS011;2913;51.120;6.772;2022-10-24T16:32:47;10.18;;;2.22;;
5774;SDS011;2913;51.120;6.772;2022-10-24T16:35:15;17.10;;;2.13;;
5774;SDS011;2913;51.120;6.772;2022-10-24T16:37:45;17.48;;;2.28;;
5774;SDS011;2913;51.120;6.772;2022-10-24T16:40:10;12.60;;;2.10;;
5774;SDS011;2913;51.120;6.772;2022-10-24T16:42:36;10.70;;;2.17;;
5774;SDS011;2913;51.120;6.772;2022-10-24T16:45:02;20.08;;;2.30;;
5774;SDS011;2913;51.120;6.772;2022-10-24T16:47:29;21.60;;;3.53;;
5774;SDS011;2913;51.120;6.772;2022-10-24T16:49:55;13.65;;;2.47;;
5774;SDS011;2913;51.120;6.772;2022-10-24T16:52:24;12.13;;;2.08;;
5774;SDS011;2913;51.120;6.772;2022-10-24T16:54:50;7.88;;;1.67;;
5774;SDS011;2913;51.120;6.772;2022-10-24T16:57:18;12.18;;;2.22;;
5774;SDS011;2913;51.120;6.772;2022-10-24T16:59:47;9.52;;;1.40;;
5774;SDS011;2913;51.120;6.772;2022-10-24T17:02:14;14.60;;;2.17;;
5774;SDS011;2913;51.120;6.772;2022-10-24T17:04:41;16.92;;;2.25;;
5774;SDS011;2913;51.120;6.772;2022-10-24T17:07:11;17.13;;;2.40;;
5774;SDS011;2913;51.120;6.772;2022-10-24T17:09:37;16.90;;;1.95;;
5774;SDS011;2913;51.120;6.772;2022-10-24T17:12:03;11.15;;;1.85;;
5774;SDS011;2913;51.120;6.772;2022-10-24T17:14:30;19.40;;;2.10;;
5774;SDS011;2913;51.120;6.772;2022-10-24T17:16:57;15.18;;;3.80;;
5774;SDS011;2913;51.120;6.772;2022-10-24T17:19:25;17.92;;;3.42;;
5774;SDS011;2913;51.120;6.772;2022-10-24T17:21:51;31.30;;;7.95;;
5774;SDS011;2913;51.120;6.772;2022-10-24T17:24:21;15.48;;;4.55;;
5774;SDS011;2913;51.120;6.772;2022-10-24T17:26:48;17.00;;;2.67;;
5774;SDS011;2913;51.120;6.772;2022-10-24T17:29:29;14.80;;;2.65;;
5774;SDS011;2913;51.120;6.772;2022-10-24T17:31:56;8.57;;;2.28;;
5774;SDS011;2913;51.120;6.772;2022-10-24T17:34:25;18.50;;;2.35;;
5774;SDS011;2913;51.120;6.772;2022-10-24T17:39:58;15.27;;;2.38;;
5774;SDS011;2913;51.120;6.772;2022-10-24T17:42:28;15.80;;;3.35;;
5774;SDS011;2913;51.120;6.772;2022-10-24T17:44:54;29.10;;;7.10;;
5774;SDS011;2913;51.120;6.772;2022-10-24T17:47:19;13.65;;;3.03;;